Overview Statistics Trail Chart Weather Telemetry Raw packets
 

This is the latest recevied weather packets stored in our database for station/object LRSV. If no packets are shown the sender has not sent any weather packets the latest 10 day(s).

<< 1 2 3 4 >>
Time Temp. Humidity Pressure Rain* Wind** Luminosity Snow
1788632300 15° C 88% 1017 hPa - - - -
1788631400 15° C 88% 1017 hPa - - - -
1788630500 15° C 88% 1016 hPa - - - -
1788629600 15° C 88% 1016 hPa - - - -
1788628711 15° C 88% 1016 hPa - - - -
1788627804 15° C 88% 1016 hPa - - - -
1788626900 16.11° C 88% 1016 hPa - - - -
1788626001 16.11° C 88% 1016 hPa - - - -
1788625101 16.11° C 94% 1016 hPa - - - -
1788624222 16.11° C 94% 1016 hPa - - - -
1788623317 17.22° C 83% 1015 hPa - - - -
1788622400 17.22° C 83% 1015 hPa - - - -
1788621501 17.78° C 73% 1016 hPa - - - -
1788620601 17.78° C 73% 1016 hPa - - - -
1788619700 18.89° C 68% 1016 hPa - - - -
1788618800 18.89° C 68% 1016 hPa - - - -
1788617901 20° C 64% 1015 hPa - - - -
1788617000 20° C 64% 1015 hPa - - - -
1788616174 20° C 69% 1015 hPa - - - -
1788615201 20° C 69% 1015 hPa - - - -
1788614303 17.78° C 78% 1015 hPa - - - -
1788613422 17.78° C 78% 1015 hPa - - - -
1788611601 21.11° C 64% 1015 hPa - - - -
1788610728 25° C 57% 1015 hPa - - - -
1788609801 25° C 57% 1015 hPa - - - -

* Rain since midnight (hover to see other rain measurements)
** Current wind speed in m/s (hover to see current wind gust speed)